Time;durP1;ratioP1;P1;durP2;ratioP2;P2;SDS_P1;SDS_P2;PMS_P1;PMS_P2;Temp;Humidity;BMP_temperature;BMP_pressure;BME280_temperature;BME280_humidity;BME280_pressure;Samples;Min_cycle;Max_cycle;Signal;HPM_P1;HPM_P2
2022/04/22 00:00:00;;;;;;;43.78;24.40;;;;;;;;;;5038003;28;20020;-79
2022/04/22 00:02:25;;;;;;;48.08;23.75;;;;;;;;;;5045341;28;20021;-81
2022/04/22 00:04:51;;;;;;;45.80;23.95;;;;;;;;;;5044595;28;20045;-81
2022/04/22 00:07:16;;;;;;;44.33;24.15;;;;;;;;;;5053891;28;20136;-81
2022/04/22 00:09:42;;;;;;;47.25;24.65;;;;;;;;;;5053651;28;20025;-80
2022/04/22 00:12:08;;;;;;;49.72;24.27;;;;;;;;;;5052870;28;20100;-81
2022/04/22 00:14:34;;;;;;;60.00;29.92;;;;;;;;;;5055028;28;20025;-81
2022/04/22 00:16:59;;;;;;;47.38;26.17;;;;;;;;;;5054792;28;20028;-81
2022/04/22 00:19:24;;;;;;;44.90;23.98;;;;;;;;;;5054943;28;20511;-80
2022/04/22 00:21:50;;;;;;;45.13;24.83;;;;;;;;;;5058224;28;20036;-80
2022/04/22 00:24:16;;;;;;;42.67;23.67;;;;;;;;;;5055406;28;20029;-80
2022/04/22 00:26:41;;;;;;;53.53;25.45;;;;;;;;;;5036658;28;20091;-81
2022/04/22 00:29:07;;;;;;;51.92;27.75;;;;;;;;;;5055038;28;20029;-79
2022/04/22 00:31:33;;;;;;;50.88;25.67;;;;;;;;;;5053366;28;20033;-80
2022/04/22 00:33:58;;;;;;;50.28;26.25;;;;;;;;;;5053251;28;20056;-80
2022/04/22 00:36:24;;;;;;;53.42;26.95;;;;;;;;;;5053253;28;20033;-80
2022/04/22 00:38:49;;;;;;;56.33;27.73;;;;;;;;;;5054367;28;20425;-80
2022/04/22 00:41:15;;;;;;;54.83;27.13;;;;;;;;;;5052893;28;20032;-80
2022/04/22 00:43:45;;;;;;;51.67;28.08;;;;;;;;;;5058830;28;20029;-80
2022/04/22 00:46:11;;;;;;;55.88;29.83;;;;;;;;;;5053173;28;20036;-80
2022/04/22 00:48:37;;;;;;;55.72;30.95;;;;;;;;;;5053076;28;20029;-81
2022/04/22 00:51:06;;;;;;;58.65;30.48;;;;;;;;;;5036434;28;20036;-80
2022/04/22 00:53:35;;;;;;;56.72;29.90;;;;;;;;;;5054435;28;20115;-79
2022/04/22 00:56:02;;;;;;;56.13;29.58;;;;;;;;;;5036566;28;20029;-80
2022/04/22 00:58:28;;;;;;;57.60;31.10;;;;;;;;;;5053065;28;20059;-80
2022/04/22 01:00:53;;;;;;;56.90;31.45;;;;;;;;;;5036301;28;20064;-79
2022/04/22 01:03:19;;;;;;;57.20;29.52;;;;;;;;;;5053173;28;20032;-80
2022/04/22 01:09:47;;;;;;;59.35;29.60;;;;;;;;;;5053008;28;20032;-80
2022/04/22 01:11:32;;;;;;;55.20;28.75;;;;;;;;;;5040376;28;20029;-79
2022/04/22 01:14:01;;;;;;;53.60;28.45;;;;;;;;;;5053915;28;20036;-79
2022/04/22 01:16:26;;;;;;;58.67;29.27;;;;;;;;;;5036317;28;20215;-79
2022/04/22 01:18:52;;;;;;;58.55;28.90;;;;;;;;;;5052799;28;20127;-79
2022/04/22 01:21:21;;;;;;;57.83;29.70;;;;;;;;;;5052581;28;20335;-79
2022/04/22 01:23:47;;;;;;;54.40;27.60;;;;;;;;;;5057567;28;20033;-79
2022/04/22 01:26:13;;;;;;;49.78;25.55;;;;;;;;;;5068181;28;20036;-79
2022/04/22 01:28:38;;;;;;;49.50;25.73;;;;;;;;;;5056795;28;20025;-80
2022/04/22 01:31:04;;;;;;;51.15;25.80;;;;;;;;;;5040130;28;20048;-79
2022/04/22 01:33:30;;;;;;;57.85;28.35;;;;;;;;;;5056541;28;20025;-79
2022/04/22 01:35:55;;;;;;;66.50;29.70;;;;;;;;;;5058035;28;20040;-79
2022/04/22 01:38:21;;;;;;;62.47;30.73;;;;;;;;;;5056283;28;20025;-79
2022/04/22 01:40:46;;;;;;;61.08;28.33;;;;;;;;;;5056395;28;20072;-79
2022/04/22 01:43:12;;;;;;;57.67;27.70;;;;;;;;;;5057867;28;20386;-79
2022/04/22 01:45:37;;;;;;;54.75;27.55;;;;;;;;;;5056311;28;20037;-80
2022/04/22 01:48:03;;;;;;;52.80;26.40;;;;;;;;;;5058062;28;20024;-79
2022/04/22 01:50:28;;;;;;;48.92;24.08;;;;;;;;;;5057765;28;20036;-80
2022/04/22 01:52:54;;;;;;;40.17;22.02;;;;;;;;;;5055919;28;20028;-80
2022/04/22 01:55:19;;;;;;;42.28;22.40;;;;;;;;;;5057655;28;20025;-80
2022/04/22 01:57:46;;;;;;;46.33;24.38;;;;;;;;;;5056449;28;20029;-80
2022/04/22 02:00:12;;;;;;;51.85;23.27;;;;;;;;;;5039804;28;20569;-79
2022/04/22 02:02:37;;;;;;;44.85;24.23;;;;;;;;;;5057320;28;20017;-79
2022/04/22 02:05:03;;;;;;;47.72;23.38;;;;;;;;;;5022698;28;20083;-79
2022/04/22 02:07:29;;;;;;;44.47;23.30;;;;;;;;;;5039627;28;20029;-78
2022/04/22 02:09:55;;;;;;;51.35;26.70;;;;;;;;;;5055962;28;20021;-78
2022/04/22 02:12:20;;;;;;;52.10;25.10;;;;;;;;;;5056089;28;20029;-79
2022/04/22 02:14:45;;;;;;;53.00;26.70;;;;;;;;;;5055860;28;20408;-79
2022/04/22 02:17:11;;;;;;;49.65;25.92;;;;;;;;;;5056997;28;20025;-79
2022/04/22 02:19:36;;;;;;;52.17;27.27;;;;;;;;;;5057050;28;20393;-79
2022/04/22 02:22:02;;;;;;;58.40;28.73;;;;;;;;;;5038672;28;20033;-79
2022/04/22 02:24:28;;;;;;;54.22;28.27;;;;;;;;;;5055674;28;20075;-80
2022/04/22 02:29:37;;;;;;;54.90;27.58;;;;;;;;;;5057099;28;20031;-78
2022/04/22 02:32:03;;;;;;;57.13;28.13;;;;;;;;;;5056725;28;20123;-79
2022/04/22 02:34:28;;;;;;;54.53;28.23;;;;;;;;;;5054668;28;20029;-79
2022/04/22 02:36:54;;;;;;;59.20;29.85;;;;;;;;;;5055248;28;20074;-79
2022/04/22 02:39:19;;;;;;;57.92;29.05;;;;;;;;;;5039022;28;20036;-78
2022/04/22 02:47:13;;;;;;;55.35;28.95;;;;;;;;;;5055487;28;20051;-79
2022/04/22 02:49:43;;;;;;;57.25;30.25;;;;;;;;;;5038972;28;20505;-79
2022/04/22 02:52:09;;;;;;;59.80;30.17;;;;;;;;;;5055040;28;20119;-80
2022/04/22 02:54:34;;;;;;;57.10;29.52;;;;;;;;;;5055641;28;20116;-79
2022/04/22 02:57:00;;;;;;;54.80;29.35;;;;;;;;;;5055108;28;20412;-79
2022/04/22 02:59:25;;;;;;;56.75;28.88;;;;;;;;;;5055155;28;20029;-79
2022/04/22 03:01:51;;;;;;;57.60;29.77;;;;;;;;;;5054940;28;20033;-80
2022/04/22 03:04:16;;;;;;;64.22;31.58;;;;;;;;;;5054812;28;20063;-79
2022/04/22 03:06:42;;;;;;;56.40;29.45;;;;;;;;;;5038335;28;20036;-80
2022/04/22 03:09:07;;;;;;;64.20;30.75;;;;;;;;;;5056025;28;20025;-79
2022/04/22 03:11:34;;;;;;;56.13;29.38;;;;;;;;;;5054917;28;20473;-79
2022/04/22 03:14:00;;;;;;;56.70;29.30;;;;;;;;;;5022173;28;20033;-79
2022/04/22 03:16:26;;;;;;;59.45;31.20;;;;;;;;;;5054652;28;20369;-80
2022/04/22 03:18:52;;;;;;;59.78;30.17;;;;;;;;;;5056145;28;20033;-80
2022/04/22 03:21:17;;;;;;;60.35;30.73;;;;;;;;;;5054270;28;20450;-79
2022/04/22 03:23:43;;;;;;;57.33;30.85;;;;;;;;;;5055778;28;20033;-79
2022/04/22 03:26:08;;;;;;;58.15;29.80;;;;;;;;;;5055707;28;20116;-79
2022/04/22 03:28:34;;;;;;;61.42;30.45;;;;;;;;;;5055972;28;20413;-79
2022/04/22 03:30:59;;;;;;;59.63;30.60;;;;;;;;;;5056387;28;20434;-78
2022/04/22 03:33:25;;;;;;;61.17;31.33;;;;;;;;;;5054341;28;20120;-80
2022/04/22 03:35:50;;;;;;;61.38;32.53;;;;;;;;;;5055260;28;20052;-79
2022/04/22 03:38:19;;;;;;;61.38;31.75;;;;;;;;;;5055729;28;20052;-79
2022/04/22 03:40:49;;;;;;;60.15;29.98;;;;;;;;;;5037683;28;20029;-79
2022/04/22 03:43:16;;;;;;;59.92;30.33;;;;;;;;;;5054713;28;20029;-80
2022/04/22 03:45:41;;;;;;;53.38;29.85;;;;;;;;;;5055296;28;20025;-79
2022/04/22 03:48:10;;;;;;;64.55;30.83;;;;;;;;;;5055507;28;20025;-79
2022/04/22 03:50:36;;;;;;;59.03;30.63;;;;;;;;;;5053895;28;20029;-79
2022/04/22 03:53:04;;;;;;;57.30;30.23;;;;;;;;;;5054237;28;20021;-79
2022/04/22 03:55:30;;;;;;;56.85;30.13;;;;;;;;;;5037440;28;20048;-79
2022/04/22 03:58:11;;;;;;;61.42;32.50;;;;;;;;;;5055068;28;20025;-79
2022/04/22 04:00:43;;;;;;;53.70;28.42;;;;;;;;;;5055002;28;20040;-79
2022/04/22 04:03:10;;;;;;;52.40;27.95;;;;;;;;;;5037392;28;20477;-79
2022/04/22 04:05:36;;;;;;;54.53;28.95;;;;;;;;;;5053656;28;20047;-80
2022/04/22 04:08:02;;;;;;;52.50;28.70;;;;;;;;;;5053965;28;20438;-79
2022/04/22 04:15:58;;;;;;;54.63;28.13;;;;;;;;;;5054680;28;20461;-80
2022/04/22 04:18:31;;;;;;;51.47;26.13;;;;;;;;;;5054703;28;20108;-79
2022/04/22 04:23:41;;;;;;;49.55;25.52;;;;;;;;;;5054705;28;20056;-80
2022/04/22 04:26:07;;;;;;;55.45;25.75;;;;;;;;;;5037038;28;20435;-80
2022/04/22 04:28:36;;;;;;;53.30;27.17;;;;;;;;;;5020369;28;20032;-80
2022/04/22 04:31:02;;;;;;;51.50;26.17;;;;;;;;;;5040464;28;20123;-79
2022/04/22 04:33:28;;;;;;;51.85;25.13;;;;;;;;;;5057196;28;20052;-79
2022/04/22 04:35:54;;;;;;;53.20;26.58;;;;;;;;;;5040563;28;20054;-81
2022/04/22 04:38:20;;;;;;;46.72;23.83;;;;;;;;;;5068473;28;20070;-81
2022/04/22 04:40:45;;;;;;;53.55;25.92;;;;;;;;;;5046571;28;20035;-80
2022/04/22 04:43:11;;;;;;;45.42;23.92;;;;;;;;;;5045317;28;20052;-78
2022/04/22 04:45:36;;;;;;;46.58;22.90;;;;;;;;;;5046387;28;20021;-79
2022/04/22 04:48:02;;;;;;;47.90;23.65;;;;;;;;;;5043835;28;20127;-80
2022/04/22 04:50:28;;;;;;;46.55;23.67;;;;;;;;;;5054244;28;20028;-80
2022/04/22 04:52:54;;;;;;;45.25;22.90;;;;;;;;;;5021320;28;20083;-79
2022/04/22 04:55:19;;;;;;;47.15;23.25;;;;;;;;;;5057566;28;20037;-80
2022/04/22 04:57:45;;;;;;;47.10;23.60;;;;;;;;;;5053943;28;20454;-80
2022/04/22 05:00:11;;;;;;;44.80;23.83;;;;;;;;;;5054048;28;20048;-79
2022/04/22 05:02:37;;;;;;;42.85;22.50;;;;;;;;;;5054358;28;20401;-79
2022/04/22 05:05:05;;;;;;;44.97;23.45;;;;;;;;;;5036214;28;20082;-79
2022/04/22 05:07:33;;;;;;;45.63;23.25;;;;;;;;;;5053083;28;20029;-80
2022/04/22 05:09:59;;;;;;;45.42;23.13;;;;;;;;;;5054018;28;20098;-78
2022/04/22 05:12:24;;;;;;;41.88;23.02;;;;;;;;;;5036167;28;20438;-79
2022/04/22 05:14:50;;;;;;;42.58;21.88;;;;;;;;;;5036904;28;20025;-79
2022/04/22 05:17:15;;;;;;;39.40;21.55;;;;;;;;;;5035847;28;20052;-80
2022/04/22 05:19:41;;;;;;;37.03;21.10;;;;;;;;;;5036049;28;20039;-79
2022/04/22 05:22:06;;;;;;;40.33;21.33;;;;;;;;;;5053855;28;20083;-79
2022/04/22 05:24:32;;;;;;;40.15;21.95;;;;;;;;;;5036217;28;20116;-79
2022/04/22 05:26:59;;;;;;;43.25;22.27;;;;;;;;;;5036107;28;20398;-80
2022/04/22 05:32:37;;;;;;;39.13;21.35;;;;;;;;;;4992431;28;20030;-79
2022/04/22 05:35:06;;;;;;;39.90;22.17;;;;;;;;;;4992543;28;20062;-80
2022/04/22 05:37:50;;;;;;;40.40;22.05;;;;;;;;;;5002688;28;20033;-79
2022/04/22 05:40:17;;;;;;;39.83;21.48;;;;;;;;;;5052692;28;20454;-81
2022/04/22 05:42:42;;;;;;;38.35;20.02;;;;;;;;;;5036207;28;20025;-80
2022/04/22 05:45:09;;;;;;;38.00;20.60;;;;;;;;;;5052778;28;20354;-79
2022/04/22 05:47:35;;;;;;;37.42;21.15;;;;;;;;;;5036200;28;20446;-80
2022/04/22 05:50:01;;;;;;;41.55;23.08;;;;;;;;;;5053605;28;20031;-79
2022/04/22 05:52:26;;;;;;;40.60;21.40;;;;;;;;;;5036127;28;20036;-80
2022/04/22 05:54:53;;;;;;;38.53;21.33;;;;;;;;;;5052316;28;20025;-81
2022/04/22 05:57:19;;;;;;;43.78;22.27;;;;;;;;;;5056856;28;20032;-78
2022/04/22 05:59:44;;;;;;;40.95;22.77;;;;;;;;;;5055297;28;20354;-79
2022/04/22 06:02:10;;;;;;;34.83;19.55;;;;;;;;;;5053492;28;20036;-80
2022/04/22 06:04:35;;;;;;;35.80;18.85;;;;;;;;;;5052436;28;20053;-79
2022/04/22 06:07:01;;;;;;;33.38;19.23;;;;;;;;;;5053799;28;20037;-80
2022/04/22 06:12:10;;;;;;;32.55;18.40;;;;;;;;;;5057129;28;20461;-80
2022/04/22 06:14:36;;;;;;;30.10;17.88;;;;;;;;;;5055885;28;20029;-79
2022/04/22 06:17:01;;;;;;;37.65;20.02;;;;;;;;;;5057268;28;20422;-79
2022/04/22 06:19:27;;;;;;;39.60;19.55;;;;;;;;;;5062531;28;20028;-79
2022/04/22 06:21:52;;;;;;;35.08;18.30;;;;;;;;;;5055790;28;20055;-81
2022/04/22 06:24:18;;;;;;;27.48;16.20;;;;;;;;;;5056977;28;20059;-80
2022/04/22 06:26:43;;;;;;;26.70;14.65;;;;;;;;;;5056869;28;20361;-79
2022/04/22 06:29:09;;;;;;;25.75;15.20;;;;;;;;;;5056717;28;20040;-78
2022/04/22 06:31:35;;;;;;;24.95;14.88;;;;;;;;;;5055796;28;20029;-79
2022/04/22 06:34:02;;;;;;;26.73;15.90;;;;;;;;;;5039199;28;20040;-80
2022/04/22 06:36:28;;;;;;;25.25;14.95;;;;;;;;;;5056805;28;20128;-80
2022/04/22 06:38:58;;;;;;;27.20;15.43;;;;;;;;;;5060852;28;20083;-80
2022/04/22 06:47:13;;;;;;;23.17;14.43;;;;;;;;;;5055443;28;20139;-79
2022/04/22 06:49:38;;;;;;;25.95;15.25;;;;;;;;;;5056412;28;20370;-80
2022/04/22 06:52:07;;;;;;;22.05;13.65;;;;;;;;;;5056331;28;20096;-80
2022/04/22 06:54:33;;;;;;;22.30;13.95;;;;;;;;;;5056507;28;20457;-79
2022/04/22 06:57:00;;;;;;;20.95;13.02;;;;;;;;;;5057244;28;20029;-80
2022/04/22 06:59:26;;;;;;;20.67;13.05;;;;;;;;;;5061324;28;20454;-80
2022/04/22 07:01:52;;;;;;;18.90;11.68;;;;;;;;;;5038618;28;20075;-81
2022/04/22 07:04:18;;;;;;;18.83;11.80;;;;;;;;;;5038178;28;20068;-80
2022/04/22 07:06:44;;;;;;;19.67;12.75;;;;;;;;;;5056357;28;20076;-82
2022/04/22 07:09:12;;;;;;;19.48;12.13;;;;;;;;;;5056071;28;20139;-80
2022/04/22 07:11:40;;;;;;;19.13;11.48;;;;;;;;;;5054506;28;20025;-80
2022/04/22 07:14:06;;;;;;;18.13;11.43;;;;;;;;;;5038416;28;20428;-81
2022/04/22 07:16:32;;;;;;;15.98;11.27;;;;;;;;;;5021644;28;20036;-80
2022/04/22 07:18:59;;;;;;;21.65;12.70;;;;;;;;;;5063039;28;20020;-80
2022/04/22 07:21:25;;;;;;;20.42;12.07;;;;;;;;;;5059181;28;20453;-80
2022/04/22 07:23:52;;;;;;;16.05;11.23;;;;;;;;;;5054662;28;20021;-80
2022/04/22 07:26:18;;;;;;;16.13;10.32;;;;;;;;;;5021775;28;20029;-82
2022/04/22 07:28:48;;;;;;;17.52;10.90;;;;;;;;;;5054691;28;20037;-81
2022/04/22 07:31:20;;;;;;;13.25;10.52;;;;;;;;;;5038059;28;20402;-81
2022/04/22 07:33:46;;;;;;;15.30;10.68;;;;;;;;;;5038200;28;20460;-81
2022/04/22 07:36:12;;;;;;;16.88;10.88;;;;;;;;;;5037900;28;20107;-81
2022/04/22 07:38:37;;;;;;;18.27;11.40;;;;;;;;;;5055830;28;20420;-82
2022/04/22 07:41:03;;;;;;;14.18;10.40;;;;;;;;;;5043599;28;20036;-81
2022/04/22 07:48:57;;;;;;;15.38;10.20;;;;;;;;;;5054477;28;20127;-81
2022/04/22 07:51:25;;;;;;;13.52;10.02;;;;;;;;;;5054200;28;20397;-83
2022/04/22 07:53:51;;;;;;;14.43;10.77;;;;;;;;;;5037768;28;20408;-81
2022/04/22 07:56:17;;;;;;;14.88;10.45;;;;;;;;;;5037566;28;20032;-82
2022/04/22 07:58:42;;;;;;;16.02;11.10;;;;;;;;;;5055135;28;20025;-81
2022/04/22 08:01:08;;;;;;;15.23;10.50;;;;;;;;;;5063049;28;20355;-80
2022/04/22 08:03:34;;;;;;;17.95;10.52;;;;;;;;;;5054393;28;20070;-80
2022/04/22 08:06:00;;;;;;;12.88;9.80;;;;;;;;;;5037280;28;20444;-81
2022/04/22 08:08:28;;;;;;;13.77;10.13;;;;;;;;;;5054908;28;20404;-81
2022/04/22 08:10:55;;;;;;;13.77;9.95;;;;;;;;;;5037306;28;20036;-81
2022/04/22 08:13:20;;;;;;;12.93;9.90;;;;;;;;;;5055167;28;20070;-81
2022/04/22 08:15:46;;;;;;;13.00;8.90;;;;;;;;;;5054716;28;20111;-82
2022/04/22 08:18:11;;;;;;;13.30;8.90;;;;;;;;;;5037152;28;20496;-81
2022/04/22 08:20:37;;;;;;;12.23;9.32;;;;;;;;;;5038019;28;20029;-82
2022/04/22 08:23:03;;;;;;;15.18;9.80;;;;;;;;;;5047064;28;20033;-82
2022/04/22 08:25:29;;;;;;;12.90;9.02;;;;;;;;;;5036626;28;20123;-81
2022/04/22 08:27:54;;;;;;;12.10;8.50;;;;;;;;;;5020469;28;20033;-82
2022/04/22 08:30:20;;;;;;;12.57;8.38;;;;;;;;;;5036733;28;20055;-81
2022/04/22 08:32:45;;;;;;;13.65;8.70;;;;;;;;;;5003667;28;20072;-82
2022/04/22 08:35:11;;;;;;;12.65;8.45;;;;;;;;;;5054554;28;20033;-80
2022/04/22 08:37:37;;;;;;;13.57;7.97;;;;;;;;;;5036949;28;20115;-81
2022/04/22 08:40:07;;;;;;;14.15;8.25;;;;;;;;;;5020261;28;20029;-81
2022/04/22 08:42:35;;;;;;;10.18;7.20;;;;;;;;;;5047702;28;20019;-81
2022/04/22 08:45:01;;;;;;;10.90;7.70;;;;;;;;;;5040376;28;20041;-82
2022/04/22 08:50:16;;;;;;;11.90;7.35;;;;;;;;;;5025229;28;20126;-81
2022/04/22 08:52:42;;;;;;;10.43;7.30;;;;;;;;;;5037193;28;20086;-83
2022/04/22 08:55:08;;;;;;;10.98;7.47;;;;;;;;;;5036293;28;20028;-81
2022/04/22 08:57:34;;;;;;;13.13;7.97;;;;;;;;;;5054496;28;20021;-80
2022/04/22 09:00:00;;;;;;;15.48;8.68;;;;;;;;;;5036356;28;20389;-80
2022/04/22 09:02:26;;;;;;;12.13;7.35;;;;;;;;;;5039613;28;20040;-83
2022/04/22 09:04:51;;;;;;;14.60;8.00;;;;;;;;;;5033923;28;20048;-85
2022/04/22 09:07:18;;;;;;;11.23;8.07;;;;;;;;;;5020062;28;20364;-83
2022/04/22 09:09:49;;;;;;;9.50;7.22;;;;;;;;;;5036453;28;20036;-82
2022/04/22 09:12:15;;;;;;;12.40;8.15;;;;;;;;;;5037084;28;20111;-80
2022/04/22 09:14:54;;;;;;;12.73;7.60;;;;;;;;;;5036222;28;20064;-83
2022/04/22 09:17:22;;;;;;;10.48;7.22;;;;;;;;;;5052931;28;20025;-82
2022/04/22 09:19:48;;;;;;;12.93;7.50;;;;;;;;;;5053953;28;20036;-81
2022/04/22 09:22:27;;;;;;;10.38;6.80;;;;;;;;;;5052552;28;20378;-82
2022/04/22 09:24:54;;;;;;;14.02;7.80;;;;;;;;;;5043078;28;20040;-81
2022/04/22 09:27:20;;;;;;;12.63;7.40;;;;;;;;;;5052920;28;20106;-82
2022/04/22 09:29:53;;;;;;;13.05;8.10;;;;;;;;;;5019581;28;20041;-82
2022/04/22 09:32:39;;;;;;;14.70;7.25;;;;;;;;;;5053732;28;20036;-82
2022/04/22 09:35:15;;;;;;;12.55;7.53;;;;;;;;;;5050022;28;20087;-82
2022/04/22 09:43:36;;;;;;;11.90;7.60;;;;;;;;;;5054730;28;20071;-79
2022/04/22 09:46:02;;;;;;;13.23;7.53;;;;;;;;;;5066413;28;20025;-83
2022/04/22 09:48:28;;;;;;;11.50;7.68;;;;;;;;;;5057731;28;20025;-83
2022/04/22 09:50:54;;;;;;;13.60;8.23;;;;;;;;;;5039822;28;20370;-81
2022/04/22 09:53:33;;;;;;;12.55;7.80;;;;;;;;;;5039629;28;20025;-83
2022/04/22 09:56:08;;;;;;;14.77;7.80;;;;;;;;;;5039754;28;20025;-81
2022/04/22 09:58:34;;;;;;;13.38;6.68;;;;;;;;;;5041125;28;20291;-83
2022/04/22 10:01:01;;;;;;;16.10;6.90;;;;;;;;;;5039558;28;20120;-81
2022/04/22 10:03:31;;;;;;;14.00;6.90;;;;;;;;;;5023445;28;20032;-81
2022/04/22 10:05:58;;;;;;;13.02;7.20;;;;;;;;;;5042804;28;20151;-82
2022/04/22 10:08:28;;;;;;;13.57;7.28;;;;;;;;;;5056525;28;20028;-82
2022/04/22 10:10:55;;;;;;;12.90;6.57;;;;;;;;;;5040086;28;20052;-81
2022/04/22 10:13:24;;;;;;;12.45;6.82;;;;;;;;;;5023342;28;20059;-83
2022/04/22 10:15:50;;;;;;;16.90;7.87;;;;;;;;;;5024090;28;20033;-83
2022/04/22 10:18:15;;;;;;;14.55;8.13;;;;;;;;;;5056194;28;20362;-81
2022/04/22 10:20:41;;;;;;;12.50;7.15;;;;;;;;;;5055520;28;20033;-83
2022/04/22 10:23:06;;;;;;;16.92;8.45;;;;;;;;;;5039299;28;20033;-82
2022/04/22 10:25:32;;;;;;;17.02;8.40;;;;;;;;;;5060252;28;20469;-80
2022/04/22 10:27:59;;;;;;;11.98;7.78;;;;;;;;;;5063445;28;20033;-81
2022/04/22 10:30:25;;;;;;;15.43;8.02;;;;;;;;;;5039313;28;20129;-81
2022/04/22 10:32:50;;;;;;;14.10;7.50;;;;;;;;;;5055562;28;20116;-80
2022/04/22 10:35:16;;;;;;;19.58;7.93;;;;;;;;;;5038871;28;20442;-82
2022/04/22 10:37:41;;;;;;;13.05;7.30;;;;;;;;;;5039140;28;20128;-81
2022/04/22 10:40:27;;;;;;;16.98;7.82;;;;;;;;;;5038895;28;20060;-82
2022/04/22 10:42:55;;;;;;;16.75;7.80;;;;;;;;;;5056423;28;20069;-81
2022/04/22 10:48:21;;;;;;;16.40;7.78;;;;;;;;;;5049899;28;20471;-82
2022/04/22 10:51:00;;;;;;;19.95;8.02;;;;;;;;;;5038812;28;20355;-81
2022/04/22 10:53:27;;;;;;;10.35;7.45;;;;;;;;;;5055046;28;20055;-82
2022/04/22 10:55:52;;;;;;;18.35;7.97;;;;;;;;;;5021467;28;20028;-82
2022/04/22 10:58:21;;;;;;;13.63;7.97;;;;;;;;;;5038451;28;20473;-82
2022/04/22 11:00:51;;;;;;;16.38;7.53;;;;;;;;;;5056056;28;20033;-82
2022/04/22 11:03:18;;;;;;;14.85;7.53;;;;;;;;;;5054792;28;20045;-81
2022/04/22 11:05:45;;;;;;;12.30;7.47;;;;;;;;;;5055819;28;20041;-80
2022/04/22 11:08:29;;;;;;;15.50;7.97;;;;;;;;;;5066171;28;20029;-82
2022/04/22 11:10:54;;;;;;;11.68;7.63;;;;;;;;;;5023571;28;20436;-84
2022/04/22 11:13:35;;;;;;;17.48;7.85;;;;;;;;;;5056437;28;20107;-80
2022/04/22 11:16:19;;;;;;;14.13;7.13;;;;;;;;;;5055910;28;20025;-81
2022/04/22 11:18:45;;;;;;;18.40;9.05;;;;;;;;;;5055612;28;20037;-81
2022/04/22 11:21:13;;;;;;;15.90;7.72;;;;;;;;;;5037910;28;20469;-80
2022/04/22 11:23:41;;;;;;;15.13;7.38;;;;;;;;;;5021847;28;20085;-81
2022/04/22 11:26:07;;;;;;;12.35;7.72;;;;;;;;;;5038597;28;20033;-80
2022/04/22 11:28:36;;;;;;;14.88;7.03;;;;;;;;;;5046059;28;20020;-81
2022/04/22 11:31:04;;;;;;;16.20;7.45;;;;;;;;;;5024866;28;20454;-83
2022/04/22 11:33:53;;;;;;;12.25;6.35;;;;;;;;;;5021524;28;20032;-81
2022/04/22 11:36:19;;;;;;;12.05;6.65;;;;;;;;;;5040759;28;20029;-83
2022/04/22 11:38:52;;;;;;;12.00;5.95;;;;;;;;;;5021425;28;20056;-82
2022/04/22 11:41:18;;;;;;;13.45;5.75;;;;;;;;;;5021673;28;20057;-82
2022/04/22 11:43:44;;;;;;;14.75;4.90;;;;;;;;;;5021182;28;20442;-81
2022/04/22 11:46:15;;;;;;;9.35;4.85;;;;;;;;;;5021154;28;20024;-82
2022/04/22 11:48:47;;;;;;;13.05;4.70;;;;;;;;;;5041340;28;20028;-81
2022/04/22 11:51:14;;;;;;;10.52;5.50;;;;;;;;;;5043147;28;20401;-81
2022/04/22 11:53:45;;;;;;;15.93;4.88;;;;;;;;;;5037616;28;20074;-81
2022/04/22 11:56:10;;;;;;;11.38;4.60;;;;;;;;;;5004571;28;20029;-82
2022/04/22 11:58:36;;;;;;;14.65;5.10;;;;;;;;;;5004558;28;20048;-83
2022/04/22 12:06:30;;;;;;;20.50;6.40;;;;;;;;;;5025071;28;20083;-81
2022/04/22 12:09:08;;;;;;;14.05;5.72;;;;;;;;;;5038553;28;20035;-80
2022/04/22 12:11:42;;;;;;;6.95;4.57;;;;;;;;;;5046596;28;20032;-80
2022/04/22 12:14:08;;;;;;;14.43;5.43;;;;;;;;;;5020852;28;20086;-80
2022/04/22 12:16:34;;;;;;;11.32;5.82;;;;;;;;;;5020420;28;20021;-82
2022/04/22 12:19:03;;;;;;;12.93;6.32;;;;;;;;;;5036859;28;20039;-84
2022/04/22 12:21:32;;;;;;;9.50;5.43;;;;;;;;;;5037629;28;20025;-81
2022/04/22 12:24:00;;;;;;;13.15;6.22;;;;;;;;;;5004469;28;20032;-81
2022/04/22 12:26:26;;;;;;;12.25;6.15;;;;;;;;;;5037735;28;20029;-82
2022/04/22 12:28:56;;;;;;;10.88;6.03;;;;;;;;;;5037162;28;20025;-81
2022/04/22 12:31:22;;;;;;;11.77;6.30;;;;;;;;;;5048229;28;20454;-82
2022/04/22 12:34:05;;;;;;;14.18;6.60;;;;;;;;;;5020672;28;20055;-82
2022/04/22 12:36:39;;;;;;;11.95;6.15;;;;;;;;;;5021625;28;20028;-81
2022/04/22 12:39:12;;;;;;;11.88;6.22;;;;;;;;;;5005421;28;20032;-84
2022/04/22 12:41:45;;;;;;;11.07;6.53;;;;;;;;;;5020251;28;20063;-81
2022/04/22 12:44:12;;;;;;;11.07;6.03;;;;;;;;;;5021165;28;20409;-82
2022/04/22 12:52:20;;;;;;;12.68;6.47;;;;;;;;;;5047456;28;20028;-81
2022/04/22 12:54:46;;;;;;;15.77;6.50;;;;;;;;;;5036652;28;20458;-81
2022/04/22 12:57:21;;;;;;;13.70;6.75;;;;;;;;;;5019926;28;20390;-82
2022/04/22 12:59:52;;;;;;;12.57;6.32;;;;;;;;;;5004780;28;20021;-81
2022/04/22 13:02:19;;;;;;;10.52;5.90;;;;;;;;;;5004126;28;20024;-83
2022/04/22 13:05:18;;;;;;;12.65;5.75;;;;;;;;;;5053932;28;20047;-83
2022/04/22 13:07:45;;;;;;;10.00;5.38;;;;;;;;;;5036459;28;20028;-82
2022/04/22 13:10:14;;;;;;;9.38;5.60;;;;;;;;;;5054244;28;20047;-81
2022/04/22 13:12:40;;;;;;;15.20;5.72;;;;;;;;;;5063614;28;20079;-80
2022/04/22 13:15:19;;;;;;;12.07;5.72;;;;;;;;;;5056297;28;20076;-81
2022/04/22 13:17:53;;;;;;;12.70;5.75;;;;;;;;;;5038321;28;20082;-84
2022/04/22 13:20:20;;;;;;;14.70;5.78;;;;;;;;;;5040567;28;20028;-80
2022/04/22 13:22:46;;;;;;;15.52;5.78;;;;;;;;;;5040560;28;20033;-81
2022/04/22 13:25:12;;;;;;;9.30;6.22;;;;;;;;;;5058017;28;20044;-83
2022/04/22 13:27:38;;;;;;;13.13;6.18;;;;;;;;;;5040064;28;20450;-83
2022/04/22 13:30:05;;;;;;;22.23;6.22;;;;;;;;;;5058654;28;20036;-82
2022/04/22 13:32:30;;;;;;;14.20;7.20;;;;;;;;;;5027667;28;20036;-82
2022/04/22 13:34:56;;;;;;;9.02;5.88;;;;;;;;;;5062624;28;20033;-81
2022/04/22 13:37:21;;;;;;;10.15;5.97;;;;;;;;;;5023989;28;20033;-81
2022/04/22 13:39:46;;;;;;;12.32;6.00;;;;;;;;;;5023861;28;20028;-82
2022/04/22 13:42:13;;;;;;;8.07;5.22;;;;;;;;;;5057705;28;20032;-83
2022/04/22 13:52:51;;;;;;;16.40;6.07;;;;;;;;;;5042733;28;20370;-81
2022/04/22 13:55:17;;;;;;;13.40;5.80;;;;;;;;;;5033763;28;20033;-82
2022/04/22 13:57:42;;;;;;;14.55;5.63;;;;;;;;;;5023556;28;20107;-82
2022/04/22 14:00:08;;;;;;;10.68;5.95;;;;;;;;;;5058039;28;20443;-82
2022/04/22 14:02:33;;;;;;;11.10;6.03;;;;;;;;;;5040060;28;20075;-81
2022/04/22 14:04:59;;;;;;;11.13;6.20;;;;;;;;;;5048483;28;20458;-81
2022/04/22 14:07:24;;;;;;;14.70;5.95;;;;;;;;;;5056445;28;20037;-82
2022/04/22 14:09:50;;;;;;;9.18;5.60;;;;;;;;;;5039978;28;20066;-83
2022/04/22 14:12:16;;;;;;;15.02;6.25;;;;;;;;;;5055788;28;20024;-81
2022/04/22 14:14:42;;;;;;;13.75;5.88;;;;;;;;;;5065074;28;20025;-80
2022/04/22 14:17:08;;;;;;;10.82;5.97;;;;;;;;;;5059424;28;20029;-81
2022/04/22 14:19:33;;;;;;;10.68;5.40;;;;;;;;;;5056087;28;20033;-82
2022/04/22 14:21:59;;;;;;;7.78;5.45;;;;;;;;;;5039293;28;20044;-80
2022/04/22 14:24:26;;;;;;;12.07;6.10;;;;;;;;;;5039258;28;20068;-79
2022/04/22 14:26:53;;;;;;;9.40;5.28;;;;;;;;;;5055599;28;20148;-83
2022/04/22 14:29:22;;;;;;;11.48;5.68;;;;;;;;;;5054725;28;20465;-79
2022/04/22 14:31:47;;;;;;;12.23;5.30;;;;;;;;;;5056857;28;20033;-81
2022/04/22 14:34:13;;;;;;;10.82;5.28;;;;;;;;;;5055913;28;20362;-81
2022/04/22 14:36:39;;;;;;;14.60;5.68;;;;;;;;;;5065850;28;20025;-82
2022/04/22 14:39:04;;;;;;;8.45;4.95;;;;;;;;;;5055793;28;20087;-79
2022/04/22 14:41:30;;;;;;;10.45;5.45;;;;;;;;;;5056696;28;20037;-81
2022/04/22 14:43:55;;;;;;;10.45;5.55;;;;;;;;;;5055311;28;20044;-82
2022/04/22 14:46:21;;;;;;;8.05;4.47;;;;;;;;;;5055601;28;20025;-81
2022/04/22 14:48:47;;;;;;;13.15;5.43;;;;;;;;;;5062244;28;20059;-81
2022/04/22 14:51:12;;;;;;;10.68;5.18;;;;;;;;;;5058903;28;20075;-79
2022/04/22 14:53:38;;;;;;;12.70;5.13;;;;;;;;;;5055315;28;20086;-81
2022/04/22 14:56:04;;;;;;;7.40;4.72;;;;;;;;;;5059424;28;20040;-78
2022/04/22 14:58:30;;;;;;;7.53;4.95;;;;;;;;;;5043941;28;20033;-80
2022/04/22 15:00:55;;;;;;;12.63;4.85;;;;;;;;;;5055329;28;20048;-82
2022/04/22 15:03:21;;;;;;;19.23;5.50;;;;;;;;;;5054998;28;20074;-82
2022/04/22 15:05:47;;;;;;;9.13;5.03;;;;;;;;;;5054847;28;20363;-81
2022/04/22 15:08:13;;;;;;;10.32;5.03;;;;;;;;;;5038795;28;20090;-83
2022/04/22 15:10:38;;;;;;;10.80;5.15;;;;;;;;;;5059087;28;20062;-79
2022/04/22 15:13:04;;;;;;;11.55;5.00;;;;;;;;;;5062786;28;20016;-80
2022/04/22 15:15:48;;;;;;;14.13;4.82;;;;;;;;;;5062784;28;20086;-80
2022/04/22 15:26:26;;;;;;;10.13;5.15;;;;;;;;;;5040551;28;20347;-81
2022/04/22 15:28:52;;;;;;;13.15;5.10;;;;;;;;;;5022078;28;20051;-80
2022/04/22 15:31:17;;;;;;;17.80;5.05;;;;;;;;;;5037882;28;20076;-81
2022/04/22 15:33:44;;;;;;;8.45;4.95;;;;;;;;;;5055687;28;20025;-80
2022/04/22 15:36:32;;;;;;;9.45;4.80;;;;;;;;;;5054451;28;20347;-82
2022/04/22 15:38:59;;;;;;;13.18;5.00;;;;;;;;;;5065292;28;20029;-80